createdAt,value
2019-01-31T00:00:58.497Z,919.89
2019-01-31T00:01:59.462Z,919.89
2019-01-31T00:03:00.427Z,919.88
2019-01-31T00:04:01.151Z,919.85
2019-01-31T00:05:02.406Z,919.84
2019-01-31T00:06:02.816Z,919.86
2019-01-31T00:07:04.055Z,919.8
2019-01-31T00:08:04.466Z,919.8
2019-01-31T00:09:04.877Z,919.76
2019-01-31T00:10:05.264Z,919.78
2019-01-31T00:11:05.674Z,919.71
2019-01-31T00:12:06.412Z,919.73
2019-01-31T00:13:06.832Z,919.74
2019-01-31T00:14:07.520Z,919.73
2019-01-31T00:15:08.201Z,919.71
2019-01-31T00:16:09.167Z,919.69
2019-01-31T00:17:09.575Z,919.67
2019-01-31T00:18:09.818Z,919.64
2019-01-31T00:19:10.947Z,919.61
2019-01-31T00:20:12.353Z,919.66
2019-01-31T00:21:13.486Z,919.59
2019-01-31T00:22:14.193Z,919.59
2019-01-31T00:23:14.711Z,919.59
2019-01-31T00:24:15.210Z,919.57
2019-01-31T00:25:15.617Z,919.58
2019-01-31T00:26:16.309Z,919.57
2019-01-31T00:27:16.746Z,919.56
2019-01-31T00:28:17.878Z,919.56
2019-01-31T00:29:18.839Z,919.56
2019-01-31T00:30:20.254Z,919.59
2019-01-31T00:31:21.226Z,919.57
2019-01-31T00:32:21.635Z,919.54
2019-01-31T00:33:22.049Z,919.56
2019-01-31T00:34:22.458Z,919.57
2019-01-31T00:35:23.588Z,919.59
2019-01-31T00:36:23.821Z,919.58
2019-01-31T00:37:24.252Z,919.58
2019-01-31T00:38:24.941Z,919.57
2019-01-31T00:39:25.665Z,919.6
2019-01-31T00:40:26.345Z,919.55
2019-01-31T00:41:27.035Z,919.55
2019-01-31T00:42:27.444Z,919.57
2019-01-31T00:43:27.955Z,919.56
2019-01-31T00:44:29.087Z,919.56
2019-01-31T00:45:29.772Z,919.54
2019-01-31T00:46:31.178Z,919.53
2019-01-31T00:47:32.145Z,919.55
2019-01-31T00:48:32.834Z,919.54
2019-01-31T00:49:33.522Z,919.57
2019-01-31T00:50:34.079Z,919.59
2019-01-31T00:51:35.148Z,919.53
2019-01-31T00:52:35.834Z,919.57
2019-01-31T00:53:36.524Z,919.54
2019-01-31T00:54:37.490Z,919.59
2019-01-31T00:55:38.290Z,919.55
2019-01-31T00:56:38.532Z,919.54
2019-01-31T00:57:39.259Z,919.54
2019-01-31T00:58:40.392Z,919.52
2019-01-31T00:59:41.082Z,919.53
2019-01-31T01:00:41.365Z,919.49
2019-01-31T01:01:42.064Z,919.48
2019-01-31T01:02:43.195Z,919.5
2019-01-31T01:03:43.611Z,919.47
2019-01-31T01:04:44.743Z,919.46
2019-01-31T01:05:45.197Z,919.44
2019-01-31T01:06:46.340Z,919.45
2019-01-31T01:07:47.474Z,919.45
2019-01-31T01:08:47.885Z,919.44
2019-01-31T01:09:48.674Z,919.44
2019-01-31T01:10:49.211Z,919.46
2019-01-31T01:11:49.908Z,919.5
2019-01-31T01:12:50.430Z,919.48
2019-01-31T01:13:51.843Z,919.49
2019-01-31T01:14:52.258Z,919.47
2019-01-31T01:15:52.945Z,919.41
2019-01-31T01:16:53.733Z,919.38
2019-01-31T01:17:54.859Z,919.46
2019-01-31T01:18:55.086Z,919.43
2019-01-31T01:19:55.547Z,919.48
2019-01-31T01:20:56.361Z,919.42
2019-01-31T01:21:57.043Z,919.42
2019-01-31T01:22:57.829Z,919.4
2019-01-31T01:23:58.509Z,919.39
2019-01-31T01:24:58.915Z,919.37
2019-01-31T01:26:00.045Z,919.46
2019-01-31T01:27:00.447Z,919.38
2019-01-31T01:28:01.578Z,919.41
2019-01-31T01:29:02.557Z,919.38
2019-01-31T01:30:03.552Z,919.42
2019-01-31T01:31:04.678Z,919.39
2019-01-31T01:32:05.809Z,919.4
2019-01-31T01:33:06.208Z,919.4
2019-01-31T01:34:07.333Z,919.38
2019-01-31T01:35:08.013Z,919.39
2019-01-31T01:36:08.991Z,919.38
2019-01-31T01:37:10.126Z,919.37
2019-01-31T01:38:10.621Z,919.34
2019-01-31T01:39:22.875Z,919.36
2019-01-31T01:40:23.277Z,919.35
2019-01-31T01:41:24.235Z,919.37
2019-01-31T01:42:24.914Z,919.38
2019-01-31T01:43:25.598Z,919.36
2019-01-31T01:44:26.725Z,919.36
2019-01-31T01:45:27.403Z,919.37
2019-01-31T01:46:28.842Z,919.34
2019-01-31T01:47:29.521Z,919.33
2019-01-31T01:48:30.203Z,919.33
2019-01-31T01:49:30.887Z,919.29
2019-01-31T01:50:31.699Z,919.29
2019-01-31T01:51:32.106Z,919.27
2019-01-31T01:52:32.510Z,919.27
2019-01-31T01:53:33.912Z,919.26
2019-01-31T01:54:35.038Z,919.25
2019-01-31T01:55:36.161Z,919.22
2019-01-31T01:56:37.234Z,919.22
2019-01-31T01:57:37.916Z,919.2
2019-01-31T01:58:39.319Z,919.19
2019-01-31T01:59:40.303Z,919.2
2019-01-31T02:00:41.669Z,919.16
2019-01-31T02:01:42.791Z,919.1
2019-01-31T02:02:43.020Z,919.06
2019-01-31T02:03:43.425Z,919.1
2019-01-31T02:04:43.898Z,919.09
2019-01-31T02:05:45.338Z,919.08
2019-01-31T02:06:45.739Z,919.05
2019-01-31T02:07:46.864Z,919.04
2019-01-31T02:08:47.994Z,919.07
2019-01-31T02:09:48.396Z,919.05
2019-01-31T02:10:48.767Z,919.03
2019-01-31T02:11:49.450Z,919.06
2019-01-31T02:12:50.131Z,919.07
2019-01-31T02:13:51.369Z,919.04
2019-01-31T02:14:51.773Z,919.01
2019-01-31T02:15:52.177Z,918.97
2019-01-31T02:16:52.404Z,918.95
2019-01-31T02:17:52.809Z,918.94
2019-01-31T02:18:53.213Z,918.88
2019-01-31T02:19:53.617Z,918.88
2019-01-31T02:20:54.102Z,918.87
2019-01-31T02:21:54.505Z,918.82
2019-01-31T02:22:55.188Z,918.83
2019-01-31T02:23:56.147Z,918.81
2019-01-31T02:24:57.275Z,918.76
2019-01-31T02:25:57.683Z,918.8
2019-01-31T02:26:58.362Z,918.8
2019-01-31T02:27:58.773Z,918.8
2019-01-31T02:28:59.181Z,918.76
2019-01-31T02:29:59.972Z,918.76
2019-01-31T02:31:00.429Z,918.76
2019-01-31T02:32:01.512Z,918.75
2019-01-31T02:33:02.665Z,918.72
2019-01-31T02:34:03.353Z,918.67
2019-01-31T02:35:03.763Z,918.71
2019-01-31T02:36:05.728Z,918.68
2019-01-31T02:37:06.141Z,918.66
2019-01-31T02:38:06.833Z,918.67
2019-01-31T02:39:07.239Z,918.66
2019-01-31T02:40:08.252Z,918.61
2019-01-31T02:41:09.343Z,918.65
2019-01-31T02:42:09.750Z,918.57
2019-01-31T02:43:10.448Z,918.57
2019-01-31T02:44:11.213Z,918.58
2019-01-31T02:45:12.459Z,918.52
2019-01-31T02:46:12.974Z,918.51
2019-01-31T02:47:14.104Z,918.48
2019-01-31T02:48:15.067Z,918.42
2019-01-31T02:49:16.301Z,918.39
2019-01-31T02:50:17.538Z,918.38
2019-01-31T02:51:18.903Z,918.33
2019-01-31T02:52:19.942Z,918.31
2019-01-31T02:53:21.069Z,918.32
2019-01-31T02:54:21.605Z,918.26
2019-01-31T02:55:22.027Z,918.21
2019-01-31T02:56:22.441Z,918.21
2019-01-31T02:57:22.828Z,918.2
2019-01-31T02:58:23.077Z,918.21
2019-01-31T02:59:24.124Z,918.18
2019-01-31T03:00:24.723Z,918.14
2019-01-31T03:01:25.270Z,918.14
2019-01-31T03:02:26.079Z,918.12
2019-01-31T03:03:26.763Z,918.12
2019-01-31T03:04:27.725Z,918.07
2019-01-31T03:05:28.418Z,918.06
2019-01-31T03:06:29.538Z,918.05
2019-01-31T03:07:29.945Z,918.03
2019-01-31T03:08:30.628Z,918.05
2019-01-31T03:09:31.666Z,917.99
2019-01-31T03:10:32.352Z,918
2019-01-31T03:11:33.031Z,917.98
2019-01-31T03:12:33.433Z,917.96
2019-01-31T03:13:33.851Z,917.99
2019-01-31T03:14:34.549Z,917.96
2019-01-31T03:15:35.072Z,917.96
2019-01-31T03:16:36.482Z,917.94
2019-01-31T03:17:37.452Z,917.95
2019-01-31T03:18:37.861Z,917.93
2019-01-31T03:19:38.548Z,917.94
2019-01-31T03:20:39.333Z,917.93
2019-01-31T03:21:40.012Z,917.92
2019-01-31T03:22:41.080Z,917.87
2019-01-31T03:23:41.335Z,917.9
2019-01-31T03:24:41.741Z,917.88
2019-01-31T03:25:42.705Z,917.9
2019-01-31T03:26:43.398Z,917.88
2019-01-31T03:27:44.525Z,917.88
2019-01-31T03:28:45.491Z,917.87
2019-01-31T03:29:46.182Z,917.85
2019-01-31T03:30:47.554Z,917.86
2019-01-31T03:31:48.965Z,917.83
2019-01-31T03:32:49.516Z,917.84
2019-01-31T03:33:50.313Z,917.8
2019-01-31T03:34:50.998Z,917.79
2019-01-31T03:35:51.677Z,917.85
2019-01-31T03:36:52.087Z,917.85
2019-01-31T03:37:52.326Z,917.85
2019-01-31T03:38:53.089Z,917.82
2019-01-31T03:39:53.775Z,917.87
2019-01-31T03:40:07.160Z,917.87
2019-01-31T03:41:06.348Z,917.82
2019-01-31T03:42:07.425Z,917.82
2019-01-31T03:43:08.430Z,917.78
2019-01-31T03:44:09.119Z,917.78
2019-01-31T03:45:09.927Z,917.72
2019-01-31T03:46:10.896Z,917.72
2019-01-31T03:47:11.413Z,917.69
2019-01-31T03:48:12.380Z,917.66
2019-01-31T03:49:12.816Z,917.69
2019-01-31T03:50:13.225Z,917.66
2019-01-31T03:51:13.893Z,917.61
2019-01-31T03:52:14.576Z,917.62
2019-01-31T03:53:15.595Z,917.62
2019-01-31T03:54:15.986Z,917.65
2019-01-31T03:55:16.684Z,917.59
2019-01-31T03:56:17.371Z,917.59
2019-01-31T03:57:18.284Z,917.6
2019-01-31T03:58:18.970Z,917.58
2019-01-31T03:59:20.234Z,917.62
2019-01-31T04:00:20.915Z,917.61
2019-01-31T04:01:21.846Z,917.64
2019-01-31T04:02:22.251Z,917.64
2019-01-31T04:03:22.769Z,917.63
2019-01-31T04:04:23.452Z,917.64
2019-01-31T04:05:23.896Z,917.62
2019-01-31T04:06:24.408Z,917.59
2019-01-31T04:07:25.533Z,917.61
2019-01-31T04:08:26.227Z,917.61
2019-01-31T04:09:26.744Z,917.6
2019-01-31T04:10:27.430Z,917.6
2019-01-31T04:11:28.003Z,917.59
2019-01-31T04:12:28.702Z,917.57
2019-01-31T04:13:29.108Z,917.52
2019-01-31T04:14:29.516Z,917.55
2019-01-31T04:15:30.227Z,917.55
2019-01-31T04:16:31.196Z,917.52
2019-01-31T04:17:32.156Z,917.48
2019-01-31T04:18:32.903Z,917.51
2019-01-31T04:19:33.158Z,917.48
2019-01-31T04:20:33.853Z,917.46
2019-01-31T04:21:34.957Z,917.47
2019-01-31T04:22:35.381Z,917.43
2019-01-31T04:23:36.508Z,917.45
2019-01-31T04:24:37.025Z,917.37
2019-01-31T04:25:37.713Z,917.35
2019-01-31T04:26:38.687Z,917.38
2019-01-31T04:27:39.380Z,917.34
2019-01-31T04:28:40.508Z,917.41
2019-01-31T04:29:41.023Z,917.37
2019-01-31T04:30:41.527Z,917.33
2019-01-31T04:31:42.675Z,917.33
2019-01-31T04:32:43.365Z,917.29
2019-01-31T04:33:44.051Z,917.32
2019-01-31T04:34:44.807Z,917.32
2019-01-31T04:35:45.324Z,917.3
2019-01-31T04:36:46.009Z,917.31
2019-01-31T04:37:46.726Z,917.32
2019-01-31T04:38:47.851Z,917.29
2019-01-31T04:39:48.280Z,917.33
2019-01-31T04:40:49.104Z,917.34
2019-01-31T04:41:49.494Z,917.33
2019-01-31T04:42:49.899Z,917.34
2019-01-31T04:43:50.886Z,917.33
2019-01-31T04:44:52.132Z,917.31
2019-01-31T04:45:52.818Z,917.27
2019-01-31T04:46:53.240Z,917.24
2019-01-31T04:47:56.604Z,917.23
2019-01-31T04:48:57.433Z,917.23
2019-01-31T04:49:58.391Z,917.25
2019-01-31T04:50:58.822Z,917.22
2019-01-31T04:51:59.938Z,917.24
2019-01-31T04:53:00.678Z,917.24
2019-01-31T04:54:01.373Z,917.24
2019-01-31T04:55:02.338Z,917.27
2019-01-31T04:56:02.875Z,917.25
2019-01-31T04:57:03.920Z,917.27
2019-01-31T04:58:04.881Z,917.22
2019-01-31T04:59:05.576Z,917.2
2019-01-31T05:00:06.815Z,917.21
2019-01-31T05:01:07.553Z,917.22
2019-01-31T05:02:08.362Z,917.18
2019-01-31T05:03:09.050Z,917.15
2019-01-31T05:04:09.792Z,917.17
2019-01-31T05:05:11.056Z,917.18
2019-01-31T05:06:11.747Z,917.16
2019-01-31T05:07:12.431Z,917.21
2019-01-31T05:08:13.692Z,917.17
2019-01-31T05:09:14.743Z,917.18
2019-01-31T05:10:15.436Z,917.2
2019-01-31T05:11:16.739Z,917.21
2019-01-31T05:12:18.151Z,917.2
2019-01-31T05:13:19.277Z,917.17
2019-01-31T05:14:20.082Z,917.17
2019-01-31T05:15:20.807Z,917.17
2019-01-31T05:16:21.773Z,917.2
2019-01-31T05:17:22.180Z,917.18
2019-01-31T05:18:23.148Z,917.2
2019-01-31T05:19:24.106Z,917.23
2019-01-31T05:20:25.374Z,917.2
2019-01-31T05:21:26.502Z,917.21
2019-01-31T05:22:27.589Z,917.21
2019-01-31T05:23:28.827Z,917.2
2019-01-31T05:24:29.512Z,917.15
2019-01-31T05:25:30.480Z,917.19
2019-01-31T05:26:30.716Z,917.17
2019-01-31T05:27:31.400Z,917.16
2019-01-31T05:28:31.644Z,917.15
2019-01-31T05:29:32.087Z,917.12
2019-01-31T05:30:33.056Z,917.12
2019-01-31T05:31:33.471Z,917.11
2019-01-31T05:32:34.565Z,917.15
2019-01-31T05:33:34.807Z,917.17
2019-01-31T05:34:35.883Z,917.2
2019-01-31T05:35:36.612Z,917.21
2019-01-31T05:36:37.148Z,917.19
2019-01-31T05:37:38.112Z,917.26
2019-01-31T05:38:39.213Z,917.23
2019-01-31T05:39:39.450Z,917.23
2019-01-31T05:40:39.863Z,917.26
2019-01-31T05:41:40.560Z,917.28
2019-01-31T05:42:41.650Z,917.26
2019-01-31T05:43:42.177Z,917.23
2019-01-31T05:44:42.585Z,917.26
2019-01-31T05:45:43.267Z,917.3
2019-01-31T05:46:43.671Z,917.3
2019-01-31T05:47:44.436Z,917.27
2019-01-31T05:48:44.989Z,917.25
2019-01-31T05:49:45.670Z,917.3
2019-01-31T05:50:46.357Z,917.25
2019-01-31T05:51:47.593Z,917.28
2019-01-31T05:52:48.539Z,917.27
2019-01-31T05:53:48.776Z,917.25
2019-01-31T05:54:49.737Z,917.28
2019-01-31T05:55:50.866Z,917.26
2019-01-31T05:56:51.270Z,917.22
2019-01-31T05:57:52.242Z,917.22
2019-01-31T05:58:52.644Z,917.17
2019-01-31T05:59:53.015Z,917.19
2019-01-31T06:00:53.417Z,917.23
2019-01-31T06:01:53.964Z,917.22
2019-01-31T06:02:54.345Z,917.24
2019-01-31T06:03:54.932Z,917.26
2019-01-31T06:04:55.348Z,917.23
2019-01-31T06:05:55.764Z,917.25
2019-01-31T06:06:56.167Z,917.26
2019-01-31T06:07:57.574Z,917.26
2019-01-31T06:08:58.531Z,917.23
2019-01-31T06:09:59.660Z,917.23
2019-01-31T06:11:08.071Z,917.26
2019-01-31T06:11:13.265Z,917.29
2019-01-31T06:12:13.498Z,917.3
2019-01-31T06:13:14.222Z,917.29
2019-01-31T06:14:14.627Z,917.32
2019-01-31T06:15:15.597Z,917.31
2019-01-31T06:16:16.565Z,917.29
2019-01-31T06:17:16.829Z,917.24
2019-01-31T06:18:17.234Z,917.28
2019-01-31T06:19:18.339Z,917.32
2019-01-31T06:20:18.742Z,917.33
2019-01-31T06:21:19.430Z,917.29
2019-01-31T06:22:20.241Z,917.26
2019-01-31T06:23:21.396Z,917.22
2019-01-31T06:24:22.808Z,917.21
2019-01-31T06:25:23.377Z,917.16
2019-01-31T06:26:23.902Z,917.22
2019-01-31T06:27:24.585Z,917.21
2019-01-31T06:28:25.269Z,917.26
2019-01-31T06:29:26.273Z,917.27
2019-01-31T06:30:27.398Z,917.29
2019-01-31T06:31:28.803Z,917.29
2019-01-31T06:32:29.006Z,917.27
2019-01-31T06:33:29.755Z,917.22
2019-01-31T06:34:31.029Z,917.23
2019-01-31T06:35:32.378Z,917.28
2019-01-31T06:36:33.062Z,917.36
2019-01-31T06:37:34.021Z,917.36
2019-01-31T06:38:35.151Z,917.37
2019-01-31T06:39:35.681Z,917.3
2019-01-31T06:40:36.090Z,917.33
2019-01-31T06:41:36.495Z,917.39
2019-01-31T06:42:37.320Z,917.39
2019-01-31T06:43:38.003Z,917.41
2019-01-31T06:44:38.410Z,917.38
2019-01-31T06:45:38.933Z,917.41
2019-01-31T06:46:40.077Z,917.36
2019-01-31T06:47:41.143Z,917.37
2019-01-31T06:48:42.274Z,917.38
2019-01-31T06:49:43.235Z,917.4
2019-01-31T06:50:43.947Z,917.38
2019-01-31T06:51:44.629Z,917.37
2019-01-31T06:52:45.521Z,917.41
2019-01-31T06:53:45.762Z,917.38
2019-01-31T06:54:46.734Z,917.4
2019-01-31T06:55:47.002Z,917.42
2019-01-31T06:56:47.691Z,917.41
2019-01-31T06:57:48.511Z,917.41
2019-01-31T06:58:49.914Z,917.44
2019-01-31T06:59:50.508Z,917.46
2019-01-31T07:00:50.918Z,917.46
2019-01-31T07:01:51.348Z,917.45
2019-01-31T07:02:52.216Z,917.47
2019-01-31T07:03:52.904Z,917.5
2019-01-31T07:04:53.409Z,917.48
2019-01-31T07:05:54.377Z,917.5
2019-01-31T07:06:55.064Z,917.52
2019-01-31T07:07:56.195Z,917.52
2019-01-31T07:08:57.977Z,917.52
2019-01-31T07:09:57.905Z,917.57
2019-01-31T07:10:58.951Z,917.54
2019-01-31T07:12:00.898Z,917.53
2019-01-31T07:13:01.543Z,917.54
2019-01-31T07:14:01.920Z,917.58
2019-01-31T07:15:02.614Z,917.55
2019-01-31T07:16:03.300Z,917.58
2019-01-31T07:17:04.271Z,917.57
2019-01-31T07:18:04.960Z,917.6
2019-01-31T07:19:06.771Z,917.59
2019-01-31T07:20:07.218Z,917.6
2019-01-31T07:21:07.950Z,917.66
2019-01-31T07:22:08.637Z,917.73
2019-01-31T07:23:09.854Z,917.71
2019-01-31T07:24:10.540Z,917.7
2019-01-31T07:25:11.512Z,917.75
2019-01-31T07:26:12.089Z,917.77
2019-01-31T07:27:12.782Z,917.78
2019-01-31T07:28:13.689Z,917.78
2019-01-31T07:29:14.611Z,917.8
2019-01-31T07:30:15.133Z,917.84
2019-01-31T07:31:15.551Z,917.81
2019-01-31T07:32:16.249Z,917.85
2019-01-31T07:33:17.294Z,917.83
2019-01-31T07:34:17.982Z,917.82
2019-01-31T07:35:19.054Z,917.87
2019-01-31T07:36:19.795Z,917.84
2019-01-31T07:37:20.501Z,917.85
2019-01-31T07:38:21.369Z,917.86
2019-01-31T07:39:22.065Z,917.9
2019-01-31T07:40:22.585Z,917.94
2019-01-31T07:41:23.817Z,918
2019-01-31T07:42:24.227Z,918
2019-01-31T07:43:26.128Z,918.03
2019-01-31T07:44:26.440Z,918.04
2019-01-31T07:45:27.248Z,918.08
2019-01-31T07:46:27.674Z,918.09
2019-01-31T07:47:28.642Z,918.21
2019-01-31T07:48:29.060Z,918.26
2019-01-31T07:49:29.861Z,918.17
2019-01-31T07:50:30.273Z,918.2
2019-01-31T07:51:31.267Z,918.25
2019-01-31T07:52:31.683Z,918.29
2019-01-31T07:53:32.802Z,918.31
2019-01-31T07:54:33.937Z,918.33
2019-01-31T07:55:34.904Z,918.34
2019-01-31T07:56:35.873Z,918.34
2019-01-31T07:57:37.008Z,918.36
2019-01-31T07:58:41.451Z,918.38
2019-01-31T07:58:49.967Z,918.4
2019-01-31T07:59:50.544Z,918.35
2019-01-31T08:00:52.306Z,918.37
2019-01-31T08:01:52.689Z,918.38
2019-01-31T08:02:53.829Z,918.41
2019-01-31T08:04:06.606Z,918.45
2019-01-31T08:05:07.447Z,918.5
2019-01-31T08:06:08.588Z,918.51
2019-01-31T08:07:09.006Z,918.46
2019-01-31T08:08:10.270Z,918.5
2019-01-31T08:09:10.696Z,918.51
2019-01-31T08:10:11.677Z,918.52
2019-01-31T08:11:12.657Z,918.54
2019-01-31T08:12:13.356Z,918.48
2019-01-31T08:13:13.779Z,918.49
2019-01-31T08:14:14.917Z,918.53
2019-01-31T08:15:15.494Z,918.55
2019-01-31T08:16:15.921Z,918.58
2019-01-31T08:17:16.902Z,918.58
2019-01-31T08:18:17.319Z,918.64
2019-01-31T08:19:18.311Z,918.64
2019-01-31T08:20:19.455Z,918.66
2019-01-31T08:21:22.791Z,918.66
2019-01-31T08:22:23.746Z,918.68
2019-01-31T08:23:24.721Z,918.71
2019-01-31T08:24:25.153Z,918.73
2019-01-31T08:25:25.768Z,918.75
2019-01-31T08:26:27.821Z,918.76
2019-01-31T08:26:39.882Z,918.74
2019-01-31T08:27:40.509Z,918.79
2019-01-31T08:28:41.765Z,918.73
2019-01-31T08:29:42.211Z,918.72
2019-01-31T08:30:43.358Z,918.69
2019-01-31T08:31:43.778Z,918.64
2019-01-31T08:32:44.471Z,918.61
2019-01-31T08:33:47.093Z,918.57
2019-01-31T08:33:57.810Z,918.63
2019-01-31T08:34:57.992Z,918.51
2019-01-31T08:35:58.786Z,918.54
2019-01-31T08:36:59.202Z,918.5
2019-01-31T08:37:59.626Z,918.5
2019-01-31T08:39:00.180Z,918.45
2019-01-31T08:40:00.938Z,918.46
2019-01-31T08:41:01.503Z,918.5
2019-01-31T08:42:04.197Z,918.49
2019-01-31T08:43:05.168Z,918.5
2019-01-31T08:44:06.478Z,918.54
2019-01-31T08:45:07.158Z,918.55
2019-01-31T08:46:07.571Z,918.55
2019-01-31T08:47:07.990Z,918.6
2019-01-31T08:48:08.684Z,918.61
2019-01-31T08:49:09.954Z,918.57
2019-01-31T08:50:10.478Z,918.58
2019-01-31T08:51:11.175Z,918.62
2019-01-31T08:52:12.008Z,918.52
2019-01-31T08:53:12.709Z,918.54
2019-01-31T08:54:13.125Z,918.51
2019-01-31T08:55:13.973Z,918.6
2019-01-31T08:56:14.677Z,918.57
2019-01-31T08:57:15.365Z,918.55
2019-01-31T08:58:15.891Z,918.46
2019-01-31T08:59:16.624Z,918.5
2019-01-31T09:00:17.779Z,918.46
2019-01-31T09:01:18.482Z,918.45
2019-01-31T09:02:19.622Z,918.46
2019-01-31T09:03:20.587Z,918.42
2019-01-31T09:04:22.011Z,918.4
2019-01-31T09:05:22.544Z,918.39
2019-01-31T09:06:23.325Z,918.36
2019-01-31T09:07:23.755Z,918.37
2019-01-31T09:08:24.221Z,918.36
2019-01-31T09:09:25.191Z,918.34
2019-01-31T09:10:26.327Z,918.37
2019-01-31T09:11:26.877Z,918.35
2019-01-31T09:12:27.569Z,918.36
2019-01-31T09:13:28.869Z,918.42
2019-01-31T09:14:29.287Z,918.36
2019-01-31T09:15:30.262Z,918.4
2019-01-31T09:16:31.588Z,918.39
2019-01-31T09:17:31.817Z,918.43
2019-01-31T09:18:32.230Z,918.44
2019-01-31T09:19:33.365Z,918.39
2019-01-31T09:20:34.499Z,918.4
2019-01-31T09:21:34.911Z,918.45
2019-01-31T09:22:36.049Z,918.46
2019-01-31T09:23:36.330Z,918.44
2019-01-31T09:24:37.120Z,918.44
2019-01-31T09:25:37.399Z,918.43
2019-01-31T09:26:37.822Z,918.48
2019-01-31T09:27:38.313Z,918.48
2019-01-31T09:28:39.005Z,918.46
2019-01-31T09:29:40.145Z,918.5
2019-01-31T09:30:40.839Z,918.48
2019-01-31T09:31:41.256Z,918.48
2019-01-31T09:32:41.947Z,918.47
2019-01-31T09:33:42.652Z,918.5
2019-01-31T09:34:43.427Z,918.53
2019-01-31T09:35:44.561Z,918.54
2019-01-31T09:36:44.809Z,918.6
2019-01-31T09:37:46.606Z,918.59
2019-01-31T09:38:47.302Z,918.6
2019-01-31T09:39:48.555Z,918.54
2019-01-31T09:40:50.089Z,918.59
2019-01-31T09:41:50.434Z,918.63
2019-01-31T09:42:50.855Z,918.63
2019-01-31T09:43:51.225Z,918.69
2019-01-31T09:44:52.363Z,918.65
2019-01-31T09:45:53.006Z,918.69
2019-01-31T09:46:53.701Z,918.7
2019-01-31T09:47:54.959Z,918.73
2019-01-31T09:48:55.876Z,918.7
2019-01-31T09:49:56.575Z,918.78
2019-01-31T09:50:57.287Z,918.8
2019-01-31T09:51:57.702Z,918.79
2019-01-31T09:52:58.675Z,918.8
2019-01-31T09:53:59.651Z,918.84
2019-01-31T09:55:00.367Z,918.82
2019-01-31T09:56:01.041Z,918.85
2019-01-31T09:57:01.737Z,918.86
2019-01-31T09:58:02.820Z,918.9
2019-01-31T09:59:03.238Z,918.88
2019-01-31T10:00:04.052Z,918.84
2019-01-31T10:01:04.505Z,918.82
2019-01-31T10:02:05.924Z,918.81
2019-01-31T10:03:07.059Z,918.81
2019-01-31T10:04:07.856Z,918.82
2019-01-31T10:05:08.275Z,918.82
2019-01-31T10:06:09.522Z,918.8
2019-01-31T10:07:10.227Z,918.85
2019-01-31T10:08:10.480Z,918.86
2019-01-31T10:09:11.476Z,918.9
2019-01-31T10:10:12.392Z,918.83
2019-01-31T10:11:13.441Z,918.9
2019-01-31T10:12:13.969Z,918.91
2019-01-31T10:13:14.517Z,918.89
2019-01-31T10:14:15.055Z,918.89
2019-01-31T10:15:15.981Z,918.86
2019-01-31T10:16:16.733Z,918.83
2019-01-31T10:17:17.370Z,918.85
2019-01-31T10:18:18.051Z,918.78
2019-01-31T10:19:19.329Z,918.76
2019-01-31T10:20:20.885Z,918.76
2019-01-31T10:21:21.409Z,918.73
2019-01-31T10:22:23.053Z,918.77
2019-01-31T10:23:23.971Z,918.72
2019-01-31T10:24:24.451Z,918.76
2019-01-31T10:25:24.889Z,918.73
2019-01-31T10:26:25.684Z,918.79
2019-01-31T10:27:26.833Z,918.75
2019-01-31T10:28:27.537Z,918.73
2019-01-31T10:29:27.901Z,918.78
2019-01-31T10:30:28.999Z,918.83
2019-01-31T10:31:29.750Z,918.88
2019-01-31T10:32:30.448Z,918.9
2019-01-31T10:33:30.974Z,918.86
2019-01-31T10:34:32.114Z,918.87
2019-01-31T10:35:32.840Z,918.94
2019-01-31T10:36:33.556Z,918.93
2019-01-31T10:37:34.530Z,918.93
2019-01-31T10:38:35.226Z,918.93
2019-01-31T10:39:36.016Z,918.95
2019-01-31T10:40:36.438Z,918.99
2019-01-31T10:41:37.588Z,918.96
2019-01-31T10:42:52.280Z,918.98
2019-01-31T10:43:52.918Z,919.01
2019-01-31T10:44:04.923Z,919.02
2019-01-31T10:45:04.913Z,919
2019-01-31T10:46:05.331Z,919.04
2019-01-31T10:47:06.473Z,919.02
2019-01-31T10:48:06.894Z,919.05
2019-01-31T10:49:07.600Z,919.01
2019-01-31T10:50:08.748Z,919.04
2019-01-31T10:51:09.341Z,918.98
2019-01-31T10:52:10.499Z,918.95
2019-01-31T10:53:11.201Z,918.97
2019-01-31T10:54:12.182Z,918.97
2019-01-31T10:55:12.452Z,918.94
2019-01-31T10:56:13.598Z,918.96
2019-01-31T10:57:14.300Z,918.99
2019-01-31T10:58:14.725Z,918.96
2019-01-31T10:59:15.855Z,918.96
2019-01-31T11:00:16.554Z,918.89
2019-01-31T11:01:16.977Z,918.96
2019-01-31T11:02:17.561Z,918.91
2019-01-31T11:03:18.325Z,918.95
2019-01-31T11:04:19.472Z,918.89
2019-01-31T11:05:20.407Z,918.87
2019-01-31T11:06:21.386Z,918.88
2019-01-31T11:07:22.366Z,918.88
2019-01-31T11:08:23.790Z,918.88
2019-01-31T11:09:24.222Z,918.86
2019-01-31T11:10:24.496Z,918.85
2019-01-31T11:11:24.927Z,918.83
2019-01-31T11:12:26.069Z,918.85
2019-01-31T11:13:27.405Z,918.81
2019-01-31T11:14:28.292Z,918.85
2019-01-31T11:15:28.538Z,918.81
2019-01-31T11:16:29.265Z,918.77
2019-01-31T11:17:30.350Z,918.75
2019-01-31T11:18:30.780Z,918.72
2019-01-31T11:19:31.430Z,918.73
2019-01-31T11:20:32.574Z,918.72
2019-01-31T11:21:33.027Z,918.73
2019-01-31T11:22:33.514Z,918.77
2019-01-31T11:23:34.570Z,918.67
2019-01-31T11:24:35.269Z,918.67
2019-01-31T11:25:36.383Z,918.59
2019-01-31T11:26:37.529Z,918.65
2019-01-31T11:27:38.689Z,918.59
2019-01-31T11:28:39.407Z,918.56
2019-01-31T11:29:40.714Z,918.58
2019-01-31T11:30:42.763Z,918.52
2019-01-31T11:31:43.716Z,918.53
2019-01-31T11:32:44.278Z,918.54
2019-01-31T11:33:46.292Z,918.56
2019-01-31T11:34:46.934Z,918.55
2019-01-31T11:35:47.326Z,918.55
2019-01-31T11:36:47.750Z,918.5
2019-01-31T11:37:48.894Z,918.53
2019-01-31T11:38:50.116Z,918.5
2019-01-31T11:39:50.714Z,918.49
2019-01-31T11:40:52.449Z,918.46
2019-01-31T11:41:53.448Z,918.46
2019-01-31T11:42:54.747Z,918.49
2019-01-31T11:43:56.642Z,918.47
2019-01-31T11:44:07.357Z,918.46
2019-01-31T11:44:19.481Z,918.47
2019-01-31T11:45:19.748Z,918.42
2019-01-31T11:46:20.766Z,918.46
2019-01-31T11:47:21.190Z,918.42
2019-01-31T11:48:21.612Z,918.43
2019-01-31T11:49:23.145Z,918.39
2019-01-31T11:50:24.552Z,918.37
2019-01-31T11:51:25.385Z,918.33
2019-01-31T11:52:26.716Z,918.35
2019-01-31T11:53:27.243Z,918.35
2019-01-31T11:54:28.412Z,918.36
2019-01-31T11:55:28.809Z,918.37
2019-01-31T11:56:29.790Z,918.38
2019-01-31T11:57:30.535Z,918.37
2019-01-31T11:58:30.954Z,918.35
2019-01-31T11:59:32.075Z,918.33
2019-01-31T12:00:33.046Z,918.36
2019-01-31T12:01:33.813Z,918.33
2019-01-31T12:02:34.512Z,918.3
2019-01-31T12:03:34.930Z,918.35
2019-01-31T12:04:35.363Z,918.34
2019-01-31T12:05:37.037Z,918.25
2019-01-31T12:06:36.864Z,918.25
2019-01-31T12:07:37.128Z,918.24
2019-01-31T12:08:38.104Z,918.25
2019-01-31T12:09:40.264Z,918.23
2019-01-31T12:09:52.304Z,918.19
2019-01-31T12:10:05.376Z,918.19
2019-01-31T12:10:17.257Z,918.16
2019-01-31T12:11:17.573Z,918.21
2019-01-31T12:12:18.272Z,918.17
2019-01-31T12:13:24.045Z,918.23
2019-01-31T12:13:30.636Z,918.22
2019-01-31T12:14:31.478Z,918.19
2019-01-31T12:15:31.899Z,918.17
2019-01-31T12:16:32.752Z,918.06
2019-01-31T12:17:33.178Z,918.07
2019-01-31T12:18:33.596Z,918.06
2019-01-31T12:19:34.110Z,918.07
2019-01-31T12:20:34.781Z,918.08
2019-01-31T12:21:35.934Z,918.1
2019-01-31T12:22:37.820Z,918.1
2019-01-31T12:23:38.367Z,918.11
2019-01-31T12:24:39.314Z,918.08
2019-01-31T12:25:40.297Z,918.12
2019-01-31T12:26:40.720Z,918.11
2019-01-31T12:27:41.697Z,918.11
2019-01-31T12:28:42.760Z,918.12
2019-01-31T12:29:43.737Z,918.08
2019-01-31T12:30:46.394Z,918.07
2019-01-31T12:30:57.488Z,918.09
2019-01-31T12:31:09.648Z,918.06